sensor_id;sensor_type;location;lat;lon;timestamp;P1;durP1;ratioP1;P2;durP2;ratioP2
32505;SDS011;18955;51.224;8.482;2022-09-30T00:00:12;2.08;;;1.30;;
32505;SDS011;18955;51.224;8.482;2022-09-30T00:02:38;1.35;;;1.25;;
32505;SDS011;18955;51.224;8.482;2022-09-30T00:05:05;1.60;;;0.90;;
32505;SDS011;18955;51.224;8.482;2022-09-30T00:07:31;1.25;;;1.15;;
32505;SDS011;18955;51.224;8.482;2022-09-30T00:09:57;0.95;;;0.95;;
32505;SDS011;18955;51.224;8.482;2022-09-30T00:12:23;1.40;;;0.90;;
32505;SDS011;18955;51.224;8.482;2022-09-30T00:14:52;1.20;;;1.20;;
32505;SDS011;18955;51.224;8.482;2022-09-30T00:19:44;1.73;;;1.15;;
32505;SDS011;18955;51.224;8.482;2022-09-30T00:22:11;0.88;;;0.88;;
32505;SDS011;18955;51.224;8.482;2022-09-30T00:24:38;1.60;;;1.13;;
32505;SDS011;18955;51.224;8.482;2022-09-30T00:27:04;0.80;;;0.80;;
32505;SDS011;18955;51.224;8.482;2022-09-30T00:29:30;1.13;;;1.02;;
32505;SDS011;18955;51.224;8.482;2022-09-30T00:31:56;1.20;;;1.10;;
32505;SDS011;18955;51.224;8.482;2022-09-30T00:34:23;3.28;;;2.15;;
32505;SDS011;18955;51.224;8.482;2022-09-30T00:36:52;1.00;;;0.77;;
32505;SDS011;18955;51.224;8.482;2022-09-30T00:39:24;1.20;;;1.20;;
32505;SDS011;18955;51.224;8.482;2022-09-30T00:41:53;1.30;;;1.20;;
32505;SDS011;18955;51.224;8.482;2022-09-30T00:50:05;1.27;;;1.17;;
32505;SDS011;18955;51.224;8.482;2022-09-30T00:52:42;4.47;;;1.30;;
32505;SDS011;18955;51.224;8.482;2022-09-30T00:55:15;1.83;;;1.13;;
32505;SDS011;18955;51.224;8.482;2022-09-30T00:57:51;1.40;;;1.30;;
32505;SDS011;18955;51.224;8.482;2022-09-30T01:00:18;1.50;;;1.40;;
32505;SDS011;18955;51.224;8.482;2022-09-30T01:02:45;0.98;;;0.98;;
32505;SDS011;18955;51.224;8.482;2022-09-30T01:05:13;2.15;;;1.10;;
32505;SDS011;18955;51.224;8.482;2022-09-30T01:07:39;2.92;;;1.10;;
32505;SDS011;18955;51.224;8.482;2022-09-30T01:10:05;1.40;;;1.20;;
32505;SDS011;18955;51.224;8.482;2022-09-30T01:12:32;3.45;;;0.90;;
32505;SDS011;18955;51.224;8.482;2022-09-30T01:14:58;0.90;;;0.90;;
32505;SDS011;18955;51.224;8.482;2022-09-30T01:17:34;0.90;;;0.90;;
32505;SDS011;18955;51.224;8.482;2022-09-30T01:22:44;2.60;;;1.10;;
32505;SDS011;18955;51.224;8.482;2022-09-30T01:36:23;1.40;;;1.30;;
32505;SDS011;18955;51.224;8.482;2022-09-30T01:41:43;6.00;;;1.90;;
32505;SDS011;18955;51.224;8.482;2022-09-30T01:44:25;2.17;;;1.38;;
32505;SDS011;18955;51.224;8.482;2022-09-30T01:52:43;1.08;;;1.08;;
32505;SDS011;18955;51.224;8.482;2022-09-30T01:55:38;2.80;;;1.15;;
32505;SDS011;18955;51.224;8.482;2022-09-30T01:58:23;2.13;;;1.30;;
32505;SDS011;18955;51.224;8.482;2022-09-30T02:01:01;2.85;;;1.30;;
32505;SDS011;18955;51.224;8.482;2022-09-30T02:03:44;1.52;;;1.33;;
32505;SDS011;18955;51.224;8.482;2022-09-30T02:06:16;1.77;;;1.48;;
32505;SDS011;18955;51.224;8.482;2022-09-30T02:08:49;3.92;;;1.33;;
32505;SDS011;18955;51.224;8.482;2022-09-30T02:11:23;1.95;;;1.40;;
32505;SDS011;18955;51.224;8.482;2022-09-30T02:13:57;1.92;;;1.40;;
32505;SDS011;18955;51.224;8.482;2022-09-30T02:16:42;3.25;;;1.17;;
32505;SDS011;18955;51.224;8.482;2022-09-30T02:19:18;3.55;;;1.42;;
32505;SDS011;18955;51.224;8.482;2022-09-30T02:21:47;1.60;;;1.50;;
32505;SDS011;18955;51.224;8.482;2022-09-30T02:24:19;4.03;;;1.20;;
32505;SDS011;18955;51.224;8.482;2022-09-30T02:26:49;1.58;;;1.38;;
32505;SDS011;18955;51.224;8.482;2022-09-30T02:29:29;1.20;;;1.10;;
32505;SDS011;18955;51.224;8.482;2022-09-30T02:32:01;1.65;;;1.08;;
32505;SDS011;18955;51.224;8.482;2022-09-30T02:34:40;1.33;;;1.23;;
32505;SDS011;18955;51.224;8.482;2022-09-30T02:37:17;1.33;;;1.23;;
32505;SDS011;18955;51.224;8.482;2022-09-30T02:39:53;2.28;;;1.50;;
32505;SDS011;18955;51.224;8.482;2022-09-30T02:42:35;2.95;;;1.80;;
32505;SDS011;18955;51.224;8.482;2022-09-30T02:45:04;1.77;;;1.50;;
32505;SDS011;18955;51.224;8.482;2022-09-30T02:58:32;1.65;;;1.40;;
32505;SDS011;18955;51.224;8.482;2022-09-30T03:01:08;2.08;;;1.35;;
32505;SDS011;18955;51.224;8.482;2022-09-30T03:04:11;2.75;;;1.58;;
32505;SDS011;18955;51.224;8.482;2022-09-30T03:06:31;1.70;;;1.60;;
32505;SDS011;18955;51.224;8.482;2022-09-30T03:08:59;1.70;;;1.60;;
32505;SDS011;18955;51.224;8.482;2022-09-30T03:11:26;1.58;;;1.48;;
32505;SDS011;18955;51.224;8.482;2022-09-30T03:13:57;4.20;;;1.83;;
32505;SDS011;18955;51.224;8.482;2022-09-30T03:19:30;1.77;;;1.67;;
32505;SDS011;18955;51.224;8.482;2022-09-30T03:22:18;1.73;;;1.63;;
32505;SDS011;18955;51.224;8.482;2022-09-30T03:24:54;2.58;;;1.52;;
32505;SDS011;18955;51.224;8.482;2022-09-30T03:27:27;2.08;;;1.60;;
32505;SDS011;18955;51.224;8.482;2022-09-30T03:30:14;2.20;;;2.00;;
32505;SDS011;18955;51.224;8.482;2022-09-30T03:32:49;1.88;;;1.73;;
32505;SDS011;18955;51.224;8.482;2022-09-30T03:46:36;3.38;;;1.95;;
32505;SDS011;18955;51.224;8.482;2022-09-30T03:49:07;2.42;;;1.73;;
32505;SDS011;18955;51.224;8.482;2022-09-30T03:51:38;3.45;;;2.40;;
32505;SDS011;18955;51.224;8.482;2022-09-30T03:54:06;3.25;;;1.92;;
32505;SDS011;18955;51.224;8.482;2022-09-30T03:56:34;2.70;;;2.00;;
32505;SDS011;18955;51.224;8.482;2022-09-30T03:59:01;1.88;;;1.77;;
32505;SDS011;18955;51.224;8.482;2022-09-30T04:01:28;2.30;;;2.10;;
32505;SDS011;18955;51.224;8.482;2022-09-30T04:03:54;6.88;;;2.38;;
32505;SDS011;18955;51.224;8.482;2022-09-30T04:06:21;5.95;;;2.00;;
32505;SDS011;18955;51.224;8.482;2022-09-30T04:08:48;2.95;;;2.08;;
32505;SDS011;18955;51.224;8.482;2022-09-30T04:11:15;2.80;;;2.20;;
32505;SDS011;18955;51.224;8.482;2022-09-30T04:13:42;2.60;;;2.40;;
32505;SDS011;18955;51.224;8.482;2022-09-30T04:16:08;3.42;;;2.45;;
32505;SDS011;18955;51.224;8.482;2022-09-30T04:18:35;2.58;;;2.20;;
32505;SDS011;18955;51.224;8.482;2022-09-30T04:21:06;2.53;;;2.13;;
32505;SDS011;18955;51.224;8.482;2022-09-30T04:23:37;2.10;;;1.90;;
32505;SDS011;18955;51.224;8.482;2022-09-30T04:26:05;2.40;;;2.20;;
32505;SDS011;18955;51.224;8.482;2022-09-30T04:28:33;3.00;;;2.17;;
32505;SDS011;18955;51.224;8.482;2022-09-30T04:33:26;3.85;;;2.47;;
32505;SDS011;18955;51.224;8.482;2022-09-30T04:35:56;2.70;;;2.50;;
32505;SDS011;18955;51.224;8.482;2022-09-30T04:38:23;4.63;;;2.17;;
32505;SDS011;18955;51.224;8.482;2022-09-30T04:40:51;2.30;;;2.10;;
32505;SDS011;18955;51.224;8.482;2022-09-30T04:43:19;2.95;;;2.45;;
32505;SDS011;18955;51.224;8.482;2022-09-30T04:45:48;3.45;;;2.80;;
32505;SDS011;18955;51.224;8.482;2022-09-30T04:48:17;4.38;;;2.63;;
32505;SDS011;18955;51.224;8.482;2022-09-30T04:50:43;5.28;;;2.55;;
32505;SDS011;18955;51.224;8.482;2022-09-30T04:53:11;3.13;;;2.55;;
32505;SDS011;18955;51.224;8.482;2022-09-30T04:55:39;5.95;;;2.72;;
32505;SDS011;18955;51.224;8.482;2022-09-30T04:58:06;4.78;;;2.80;;
32505;SDS011;18955;51.224;8.482;2022-09-30T05:00:33;5.93;;;3.00;;
32505;SDS011;18955;51.224;8.482;2022-09-30T05:02:59;7.07;;;3.00;;
32505;SDS011;18955;51.224;8.482;2022-09-30T05:05:25;6.72;;;2.15;;
32505;SDS011;18955;51.224;8.482;2022-09-30T05:07:51;13.95;;;3.15;;
32505;SDS011;18955;51.224;8.482;2022-09-30T05:10:18;15.43;;;3.08;;
32505;SDS011;18955;51.224;8.482;2022-09-30T05:12:44;13.15;;;2.38;;
32505;SDS011;18955;51.224;8.482;2022-09-30T05:15:11;13.95;;;3.22;;
32505;SDS011;18955;51.224;8.482;2022-09-30T05:17:37;4.43;;;2.85;;
32505;SDS011;18955;51.224;8.482;2022-09-30T05:20:03;9.65;;;2.80;;
32505;SDS011;18955;51.224;8.482;2022-09-30T05:22:35;9.95;;;3.20;;
32505;SDS011;18955;51.224;8.482;2022-09-30T05:25:01;7.95;;;2.80;;
32505;SDS011;18955;51.224;8.482;2022-09-30T05:27:29;7.70;;;3.20;;
32505;SDS011;18955;51.224;8.482;2022-09-30T05:29:55;17.27;;;3.65;;
32505;SDS011;18955;51.224;8.482;2022-09-30T05:32:21;17.67;;;3.90;;
32505;SDS011;18955;51.224;8.482;2022-09-30T05:34:47;4.65;;;2.13;;
32505;SDS011;18955;51.224;8.482;2022-09-30T05:37:14;8.55;;;2.92;;
32505;SDS011;18955;51.224;8.482;2022-09-30T05:39:40;9.30;;;2.42;;
32505;SDS011;18955;51.224;8.482;2022-09-30T05:44:33;9.27;;;2.65;;
32505;SDS011;18955;51.224;8.482;2022-09-30T05:46:59;3.97;;;1.98;;
32505;SDS011;18955;51.224;8.482;2022-09-30T05:49:25;4.65;;;2.70;;
32505;SDS011;18955;51.224;8.482;2022-09-30T05:51:51;8.40;;;2.30;;
32505;SDS011;18955;51.224;8.482;2022-09-30T05:54:18;18.00;;;2.97;;
32505;SDS011;18955;51.224;8.482;2022-09-30T05:56:44;5.70;;;2.30;;
32505;SDS011;18955;51.224;8.482;2022-09-30T05:59:11;2.83;;;2.17;;
32505;SDS011;18955;51.224;8.482;2022-09-30T06:01:37;3.13;;;2.63;;
32505;SDS011;18955;51.224;8.482;2022-09-30T06:04:03;3.55;;;2.22;;
32505;SDS011;18955;51.224;8.482;2022-09-30T06:06:30;2.97;;;2.00;;
32505;SDS011;18955;51.224;8.482;2022-09-30T06:08:56;4.65;;;2.33;;
32505;SDS011;18955;51.224;8.482;2022-09-30T06:11:22;12.55;;;2.20;;
32505;SDS011;18955;51.224;8.482;2022-09-30T06:13:49;4.38;;;2.42;;
32505;SDS011;18955;51.224;8.482;2022-09-30T06:16:16;3.95;;;2.60;;
32505;SDS011;18955;51.224;8.482;2022-09-30T06:18:43;4.40;;;2.58;;
32505;SDS011;18955;51.224;8.482;2022-09-30T06:21:11;5.93;;;2.47;;
32505;SDS011;18955;51.224;8.482;2022-09-30T06:23:38;4.68;;;2.58;;
32505;SDS011;18955;51.224;8.482;2022-09-30T06:28:33;4.85;;;2.67;;
32505;SDS011;18955;51.224;8.482;2022-09-30T06:33:27;7.35;;;2.63;;
32505;SDS011;18955;51.224;8.482;2022-09-30T06:35:54;4.47;;;2.42;;
32505;SDS011;18955;51.224;8.482;2022-09-30T06:38:20;7.90;;;2.55;;
32505;SDS011;18955;51.224;8.482;2022-09-30T06:40:47;4.18;;;2.60;;
32505;SDS011;18955;51.224;8.482;2022-09-30T06:43:18;4.50;;;2.75;;
32505;SDS011;18955;51.224;8.482;2022-09-30T06:45:46;2.97;;;2.30;;
32505;SDS011;18955;51.224;8.482;2022-09-30T06:48:13;4.93;;;2.78;;
32505;SDS011;18955;51.224;8.482;2022-09-30T06:50:40;4.63;;;2.50;;
32505;SDS011;18955;51.224;8.482;2022-09-30T06:55:36;9.30;;;2.78;;
32505;SDS011;18955;51.224;8.482;2022-09-30T06:58:07;7.13;;;2.55;;
32505;SDS011;18955;51.224;8.482;2022-09-30T07:00:38;12.25;;;2.80;;
32505;SDS011;18955;51.224;8.482;2022-09-30T07:03:04;12.98;;;3.13;;
32505;SDS011;18955;51.224;8.482;2022-09-30T07:05:35;7.32;;;2.95;;
32505;SDS011;18955;51.224;8.482;2022-09-30T07:08:01;6.82;;;2.90;;
32505;SDS011;18955;51.224;8.482;2022-09-30T07:10:28;7.68;;;2.92;;
32505;SDS011;18955;51.224;8.482;2022-09-30T07:12:54;7.47;;;2.63;;
32505;SDS011;18955;51.224;8.482;2022-09-30T07:15:20;5.88;;;2.72;;
32505;SDS011;18955;51.224;8.482;2022-09-30T07:17:51;7.38;;;2.90;;
32505;SDS011;18955;51.224;8.482;2022-09-30T07:20:18;11.50;;;2.80;;
32505;SDS011;18955;51.224;8.482;2022-09-30T07:22:44;7.68;;;2.92;;
32505;SDS011;18955;51.224;8.482;2022-09-30T07:25:10;10.65;;;2.90;;
32505;SDS011;18955;51.224;8.482;2022-09-30T07:27:37;18.65;;;3.15;;
32505;SDS011;18955;51.224;8.482;2022-09-30T07:30:03;18.23;;;3.75;;
32505;SDS011;18955;51.224;8.482;2022-09-30T07:32:30;14.20;;;3.20;;
32505;SDS011;18955;51.224;8.482;2022-09-30T07:34:56;8.70;;;2.33;;
32505;SDS011;18955;51.224;8.482;2022-09-30T07:37:23;14.95;;;3.65;;
32505;SDS011;18955;51.224;8.482;2022-09-30T07:39:50;5.40;;;2.85;;
32505;SDS011;18955;51.224;8.482;2022-09-30T07:42:17;7.40;;;3.03;;
32505;SDS011;18955;51.224;8.482;2022-09-30T07:44:47;7.78;;;3.60;;
32505;SDS011;18955;51.224;8.482;2022-09-30T07:47:16;13.88;;;3.40;;
32505;SDS011;18955;51.224;8.482;2022-09-30T07:52:10;6.38;;;3.35;;
32505;SDS011;18955;51.224;8.482;2022-09-30T07:54:37;11.82;;;4.40;;
32505;SDS011;18955;51.224;8.482;2022-09-30T07:57:04;10.80;;;4.63;;
32505;SDS011;18955;51.224;8.482;2022-09-30T08:01:58;14.07;;;4.23;;
32505;SDS011;18955;51.224;8.482;2022-09-30T08:06:58;11.77;;;5.28;;
32505;SDS011;18955;51.224;8.482;2022-09-30T08:09:26;11.68;;;7.25;;
32505;SDS011;18955;51.224;8.482;2022-09-30T08:11:54;20.50;;;8.32;;
32505;SDS011;18955;51.224;8.482;2022-09-30T08:14:21;16.00;;;8.18;;
32505;SDS011;18955;51.224;8.482;2022-09-30T08:16:49;15.45;;;8.43;;
32505;SDS011;18955;51.224;8.482;2022-09-30T08:21:47;11.50;;;8.48;;
32505;SDS011;18955;51.224;8.482;2022-09-30T08:24:13;11.52;;;8.25;;
32505;SDS011;18955;51.224;8.482;2022-09-30T08:29:07;11.70;;;7.75;;
32505;SDS011;18955;51.224;8.482;2022-09-30T08:31:35;16.90;;;9.38;;
32505;SDS011;18955;51.224;8.482;2022-09-30T08:34:02;13.50;;;8.60;;
32505;SDS011;18955;51.224;8.482;2022-09-30T08:36:28;12.18;;;7.32;;
32505;SDS011;18955;51.224;8.482;2022-09-30T08:38:55;14.93;;;8.23;;
32505;SDS011;18955;51.224;8.482;2022-09-30T08:49:45;23.83;;;11.30;;
32505;SDS011;18955;51.224;8.482;2022-09-30T08:52:31;18.42;;;9.88;;
32505;SDS011;18955;51.224;8.482;2022-09-30T08:55:01;18.15;;;10.80;;
32505;SDS011;18955;51.224;8.482;2022-09-30T08:57:32;18.25;;;10.25;;
32505;SDS011;18955;51.224;8.482;2022-09-30T09:00:06;20.30;;;11.10;;
32505;SDS011;18955;51.224;8.482;2022-09-30T09:05:10;23.42;;;11.38;;
32505;SDS011;18955;51.224;8.482;2022-09-30T09:10:27;14.73;;;9.15;;
32505;SDS011;18955;51.224;8.482;2022-09-30T09:18:26;28.77;;;11.68;;
32505;SDS011;18955;51.224;8.482;2022-09-30T09:23:48;24.13;;;13.00;;
32505;SDS011;18955;51.224;8.482;2022-09-30T09:26:16;17.13;;;10.60;;
32505;SDS011;18955;51.224;8.482;2022-09-30T09:31:13;16.60;;;10.05;;
32505;SDS011;18955;51.224;8.482;2022-09-30T09:33:42;18.23;;;10.82;;
32505;SDS011;18955;51.224;8.482;2022-09-30T09:41:29;17.63;;;8.80;;
32505;SDS011;18955;51.224;8.482;2022-09-30T09:44:41;19.25;;;10.50;;
32505;SDS011;18955;51.224;8.482;2022-09-30T09:47:14;19.23;;;11.05;;
32505;SDS011;18955;51.224;8.482;2022-09-30T09:49:45;17.35;;;10.77;;
32505;SDS011;18955;51.224;8.482;2022-09-30T09:55:11;19.80;;;10.98;;
32505;SDS011;18955;51.224;8.482;2022-09-30T09:57:39;19.60;;;10.88;;
32505;SDS011;18955;51.224;8.482;2022-09-30T10:02:59;15.35;;;10.13;;
32505;SDS011;18955;51.224;8.482;2022-09-30T10:05:29;21.80;;;10.33;;
32505;SDS011;18955;51.224;8.482;2022-09-30T10:08:08;16.25;;;9.50;;
32505;SDS011;18955;51.224;8.482;2022-09-30T10:10:40;14.80;;;9.23;;
32505;SDS011;18955;51.224;8.482;2022-09-30T10:13:14;22.80;;;8.35;;
32505;SDS011;18955;51.224;8.482;2022-09-30T10:15:45;22.42;;;8.80;;
32505;SDS011;18955;51.224;8.482;2022-09-30T10:18:17;22.65;;;9.07;;
32505;SDS011;18955;51.224;8.482;2022-09-30T10:20:50;14.10;;;8.00;;
32505;SDS011;18955;51.224;8.482;2022-09-30T10:23:20;14.07;;;8.07;;
32505;SDS011;18955;51.224;8.482;2022-09-30T10:25:56;17.70;;;8.95;;
32505;SDS011;18955;51.224;8.482;2022-09-30T10:28:26;17.00;;;8.32;;
32505;SDS011;18955;51.224;8.482;2022-09-30T10:30:55;12.40;;;8.60;;
32505;SDS011;18955;51.224;8.482;2022-09-30T10:36:07;14.07;;;8.32;;
32505;SDS011;18955;51.224;8.482;2022-09-30T10:38:43;14.25;;;8.20;;
32505;SDS011;18955;51.224;8.482;2022-09-30T10:41:32;13.98;;;7.25;;
32505;SDS011;18955;51.224;8.482;2022-09-30T10:44:04;12.00;;;7.95;;
32505;SDS011;18955;51.224;8.482;2022-09-30T10:46:38;10.48;;;6.88;;
32505;SDS011;18955;51.224;8.482;2022-09-30T10:49:10;14.40;;;8.02;;
32505;SDS011;18955;51.224;8.482;2022-09-30T10:51:53;13.40;;;7.95;;
32505;SDS011;18955;51.224;8.482;2022-09-30T10:57:15;12.27;;;7.85;;
32505;SDS011;18955;51.224;8.482;2022-09-30T10:59:44;13.32;;;7.40;;
32505;SDS011;18955;51.224;8.482;2022-09-30T11:13:40;8.85;;;4.60;;
32505;SDS011;18955;51.224;8.482;2022-09-30T11:21:08;13.02;;;4.35;;
32505;SDS011;18955;51.224;8.482;2022-09-30T11:23:57;7.35;;;3.20;;
32505;SDS011;18955;51.224;8.482;2022-09-30T11:34:48;6.13;;;2.00;;
32505;SDS011;18955;51.224;8.482;2022-09-30T11:37:52;4.80;;;2.15;;
32505;SDS011;18955;51.224;8.482;2022-09-30T11:40:21;2.20;;;1.65;;
32505;SDS011;18955;51.224;8.482;2022-09-30T11:43:05;2.22;;;1.50;;
32505;SDS011;18955;51.224;8.482;2022-09-30T11:57:02;2.13;;;0.90;;
32505;SDS011;18955;51.224;8.482;2022-09-30T12:02:12;3.95;;;1.20;;
32505;SDS011;18955;51.224;8.482;2022-09-30T12:08:17;2.05;;;0.95;;
32505;SDS011;18955;51.224;8.482;2022-09-30T12:13:23;3.55;;;0.90;;
32505;SDS011;18955;51.224;8.482;2022-09-30T12:15:55;2.95;;;0.77;;
32505;SDS011;18955;51.224;8.482;2022-09-30T12:18:27;3.13;;;0.88;;
32505;SDS011;18955;51.224;8.482;2022-09-30T12:23:45;4.43;;;0.70;;
32505;SDS011;18955;51.224;8.482;2022-09-30T12:26:19;1.20;;;0.75;;
32505;SDS011;18955;51.224;8.482;2022-09-30T12:48:21;2.70;;;0.90;;
32505;SDS011;18955;51.224;8.482;2022-09-30T12:50:53;4.28;;;0.90;;
32505;SDS011;18955;51.224;8.482;2022-09-30T12:53:24;1.50;;;0.80;;
32505;SDS011;18955;51.224;8.482;2022-09-30T12:55:51;1.63;;;0.90;;
32505;SDS011;18955;51.224;8.482;2022-09-30T13:00:59;6.13;;;1.00;;
32505;SDS011;18955;51.224;8.482;2022-09-30T13:06:24;3.08;;;1.38;;
32505;SDS011;18955;51.224;8.482;2022-09-30T13:11:47;2.97;;;0.90;;
32505;SDS011;18955;51.224;8.482;2022-09-30T13:19:33;2.63;;;1.02;;
32505;SDS011;18955;51.224;8.482;2022-09-30T13:27:34;4.07;;;2.28;;
32505;SDS011;18955;51.224;8.482;2022-09-30T13:43:13;2.05;;;1.55;;
32505;SDS011;18955;51.224;8.482;2022-09-30T13:45:47;3.55;;;1.40;;
32505;SDS011;18955;51.224;8.482;2022-09-30T13:48:17;4.75;;;1.67;;
32505;SDS011;18955;51.224;8.482;2022-09-30T13:50:48;3.72;;;1.58;;
32505;SDS011;18955;51.224;8.482;2022-09-30T13:53:26;2.15;;;1.30;;
32505;SDS011;18955;51.224;8.482;2022-09-30T13:55:57;5.10;;;1.20;;
32505;SDS011;18955;51.224;8.482;2022-09-30T14:01:40;2.38;;;1.10;;
32505;SDS011;18955;51.224;8.482;2022-09-30T14:23:11;2.83;;;1.30;;
32505;SDS011;18955;51.224;8.482;2022-09-30T14:25:41;3.20;;;0.63;;
32505;SDS011;18955;51.224;8.482;2022-09-30T14:28:32;2.75;;;1.02;;
32505;SDS011;18955;51.224;8.482;2022-09-30T14:31:12;1.45;;;1.20;;
32505;SDS011;18955;51.224;8.482;2022-09-30T14:33:39;2.15;;;0.82;;
32505;SDS011;18955;51.224;8.482;2022-09-30T14:36:18;2.70;;;1.23;;
32505;SDS011;18955;51.224;8.482;2022-09-30T14:38:51;2.58;;;1.08;;
32505;SDS011;18955;51.224;8.482;2022-09-30T14:41:21;1.70;;;1.05;;
32505;SDS011;18955;51.224;8.482;2022-09-30T14:43:50;3.80;;;1.23;;
32505;SDS011;18955;51.224;8.482;2022-09-30T14:48:51;1.42;;;1.10;;
32505;SDS011;18955;51.224;8.482;2022-09-30T14:51:18;2.08;;;0.98;;
32505;SDS011;18955;51.224;8.482;2022-09-30T14:53:56;1.52;;;0.90;;
32505;SDS011;18955;51.224;8.482;2022-09-30T14:56:27;4.32;;;0.98;;
32505;SDS011;18955;51.224;8.482;2022-09-30T14:58:56;3.85;;;1.00;;
32505;SDS011;18955;51.224;8.482;2022-09-30T15:01:25;2.97;;;0.88;;
32505;SDS011;18955;51.224;8.482;2022-09-30T15:03:58;3.50;;;0.93;;
32505;SDS011;18955;51.224;8.482;2022-09-30T15:06:30;4.05;;;0.80;;
32505;SDS011;18955;51.224;8.482;2022-09-30T15:08:59;3.50;;;0.80;;
32505;SDS011;18955;51.224;8.482;2022-09-30T15:11:30;0.82;;;0.70;;
32505;SDS011;18955;51.224;8.482;2022-09-30T15:14:01;3.92;;;0.65;;
32505;SDS011;18955;51.224;8.482;2022-09-30T15:16:30;2.38;;;0.68;;
32505;SDS011;18955;51.224;8.482;2022-09-30T15:18:57;0.93;;;0.80;;
32505;SDS011;18955;51.224;8.482;2022-09-30T15:21:24;1.20;;;0.70;;
32505;SDS011;18955;51.224;8.482;2022-09-30T15:23:53;1.20;;;0.80;;
32505;SDS011;18955;51.224;8.482;2022-09-30T15:26:22;4.63;;;0.80;;
32505;SDS011;18955;51.224;8.482;2022-09-30T15:28:50;0.70;;;0.70;;
32505;SDS011;18955;51.224;8.482;2022-09-30T15:33:48;1.10;;;0.70;;
32505;SDS011;18955;51.224;8.482;2022-09-30T15:36:28;2.30;;;0.80;;
32505;SDS011;18955;51.224;8.482;2022-09-30T15:38:54;1.27;;;0.50;;
32505;SDS011;18955;51.224;8.482;2022-09-30T15:41:20;2.88;;;0.60;;
32505;SDS011;18955;51.224;8.482;2022-09-30T15:43:47;1.67;;;0.73;;
32505;SDS011;18955;51.224;8.482;2022-09-30T15:46:23;1.35;;;0.60;;
32505;SDS011;18955;51.224;8.482;2022-09-30T15:53:57;1.35;;;0.60;;
32505;SDS011;18955;51.224;8.482;2022-09-30T15:56:35;1.55;;;0.60;;
32505;SDS011;18955;51.224;8.482;2022-09-30T15:59:06;2.08;;;0.80;;
32505;SDS011;18955;51.224;8.482;2022-09-30T16:04:20;0.85;;;0.50;;
32505;SDS011;18955;51.224;8.482;2022-09-30T16:07:07;1.38;;;0.93;;
32505;SDS011;18955;51.224;8.482;2022-09-30T16:09:39;1.50;;;0.70;;
32505;SDS011;18955;51.224;8.482;2022-09-30T16:14:40;4.20;;;0.60;;
32505;SDS011;18955;51.224;8.482;2022-09-30T16:17:20;1.33;;;0.80;;
32505;SDS011;18955;51.224;8.482;2022-09-30T16:19:52;2.22;;;0.75;;
32505;SDS011;18955;51.224;8.482;2022-09-30T16:27:35;4.40;;;1.10;;
32505;SDS011;18955;51.224;8.482;2022-09-30T16:30:03;5.15;;;0.82;;
32505;SDS011;18955;51.224;8.482;2022-09-30T16:32:32;6.30;;;0.93;;
32505;SDS011;18955;51.224;8.482;2022-09-30T16:35:04;2.67;;;0.80;;
32505;SDS011;18955;51.224;8.482;2022-09-30T16:37:31;3.40;;;0.73;;
32505;SDS011;18955;51.224;8.482;2022-09-30T16:39:59;2.25;;;0.85;;
32505;SDS011;18955;51.224;8.482;2022-09-30T16:42:34;3.50;;;1.20;;
32505;SDS011;18955;51.224;8.482;2022-09-30T16:45:01;4.63;;;1.40;;
32505;SDS011;18955;51.224;8.482;2022-09-30T16:47:27;8.35;;;0.88;;
32505;SDS011;18955;51.224;8.482;2022-09-30T16:49:53;1.50;;;0.82;;
32505;SDS011;18955;51.224;8.482;2022-09-30T16:52:19;1.30;;;0.60;;
32505;SDS011;18955;51.224;8.482;2022-09-30T16:54:45;0.70;;;0.68;;
32505;SDS011;18955;51.224;8.482;2022-09-30T16:57:12;4.60;;;0.93;;
32505;SDS011;18955;51.224;8.482;2022-09-30T17:02:05;3.55;;;0.80;;
32505;SDS011;18955;51.224;8.482;2022-09-30T17:04:36;2.72;;;0.70;;
32505;SDS011;18955;51.224;8.482;2022-09-30T17:07:03;0.70;;;0.50;;
32505;SDS011;18955;51.224;8.482;2022-09-30T17:09:29;1.40;;;0.60;;
32505;SDS011;18955;51.224;8.482;2022-09-30T17:11:56;2.22;;;0.63;;
32505;SDS011;18955;51.224;8.482;2022-09-30T17:14:25;2.85;;;0.77;;
32505;SDS011;18955;51.224;8.482;2022-09-30T17:16:51;2.17;;;0.80;;
32505;SDS011;18955;51.224;8.482;2022-09-30T17:19:18;1.95;;;0.63;;
32505;SDS011;18955;51.224;8.482;2022-09-30T17:21:44;2.72;;;0.80;;
32505;SDS011;18955;51.224;8.482;2022-09-30T17:24:10;4.53;;;0.70;;
32505;SDS011;18955;51.224;8.482;2022-09-30T17:26:36;1.85;;;0.95;;
32505;SDS011;18955;51.224;8.482;2022-09-30T17:29:04;3.42;;;0.90;;
32505;SDS011;18955;51.224;8.482;2022-09-30T17:31:30;3.08;;;0.70;;
32505;SDS011;18955;51.224;8.482;2022-09-30T17:33:56;1.75;;;0.60;;
32505;SDS011;18955;51.224;8.482;2022-09-30T17:36:22;0.77;;;0.50;;
32505;SDS011;18955;51.224;8.482;2022-09-30T17:41:17;6.25;;;0.90;;
32505;SDS011;18955;51.224;8.482;2022-09-30T17:44:02;2.15;;;0.73;;
32505;SDS011;18955;51.224;8.482;2022-09-30T17:46:38;1.67;;;0.73;;
32505;SDS011;18955;51.224;8.482;2022-09-30T17:49:08;1.60;;;0.93;;
32505;SDS011;18955;51.224;8.482;2022-09-30T17:51:35;1.63;;;0.70;;
32505;SDS011;18955;51.224;8.482;2022-09-30T17:54:05;1.05;;;0.73;;
32505;SDS011;18955;51.224;8.482;2022-09-30T17:56:32;3.22;;;0.80;;
32505;SDS011;18955;51.224;8.482;2022-09-30T17:58:59;1.38;;;0.70;;
32505;SDS011;18955;51.224;8.482;2022-09-30T18:01:27;2.78;;;0.63;;
32505;SDS011;18955;51.224;8.482;2022-09-30T18:04:00;1.90;;;0.80;;
32505;SDS011;18955;51.224;8.482;2022-09-30T18:06:26;0.80;;;0.80;;
32505;SDS011;18955;51.224;8.482;2022-09-30T18:08:53;0.80;;;0.73;;
32505;SDS011;18955;51.224;8.482;2022-09-30T18:13:51;2.47;;;0.85;;
32505;SDS011;18955;51.224;8.482;2022-09-30T18:16:19;3.60;;;1.10;;
32505;SDS011;18955;51.224;8.482;2022-09-30T18:18:46;1.23;;;0.73;;
32505;SDS011;18955;51.224;8.482;2022-09-30T18:21:12;0.95;;;0.90;;
32505;SDS011;18955;51.224;8.482;2022-09-30T18:23:38;0.82;;;0.63;;
32505;SDS011;18955;51.224;8.482;2022-09-30T18:26:04;2.88;;;1.02;;
32505;SDS011;18955;51.224;8.482;2022-09-30T18:28:31;1.77;;;0.80;;
32505;SDS011;18955;51.224;8.482;2022-09-30T18:31:03;2.67;;;1.05;;
32505;SDS011;18955;51.224;8.482;2022-09-30T18:33:30;1.88;;;1.00;;
32505;SDS011;18955;51.224;8.482;2022-09-30T18:35:58;4.38;;;1.00;;
32505;SDS011;18955;51.224;8.482;2022-09-30T18:38:25;3.53;;;1.20;;
32505;SDS011;18955;51.224;8.482;2022-09-30T18:40:53;2.38;;;1.30;;
32505;SDS011;18955;51.224;8.482;2022-09-30T18:43:19;4.13;;;1.27;;
32505;SDS011;18955;51.224;8.482;2022-09-30T18:45:55;3.42;;;1.42;;
32505;SDS011;18955;51.224;8.482;2022-09-30T18:48:22;1.98;;;1.30;;
32505;SDS011;18955;51.224;8.482;2022-09-30T18:50:49;3.47;;;1.33;;
32505;SDS011;18955;51.224;8.482;2022-09-30T18:53:19;1.92;;;1.48;;
32505;SDS011;18955;51.224;8.482;2022-09-30T18:55:46;7.85;;;1.60;;
32505;SDS011;18955;51.224;8.482;2022-09-30T18:58:13;3.30;;;1.58;;
32505;SDS011;18955;51.224;8.482;2022-09-30T19:00:42;4.10;;;1.65;;
32505;SDS011;18955;51.224;8.482;2022-09-30T19:03:09;3.92;;;1.85;;
32505;SDS011;18955;51.224;8.482;2022-09-30T19:05:39;3.85;;;1.70;;
32505;SDS011;18955;51.224;8.482;2022-09-30T19:08:06;7.05;;;1.90;;
32505;SDS011;18955;51.224;8.482;2022-09-30T19:10:37;6.22;;;1.77;;
32505;SDS011;18955;51.224;8.482;2022-09-30T19:13:04;2.38;;;1.58;;
32505;SDS011;18955;51.224;8.482;2022-09-30T19:15:30;4.32;;;1.70;;
32505;SDS011;18955;51.224;8.482;2022-09-30T19:17:57;3.38;;;1.88;;
32505;SDS011;18955;51.224;8.482;2022-09-30T19:20:23;2.35;;;1.80;;
32505;SDS011;18955;51.224;8.482;2022-09-30T19:22:49;2.65;;;1.70;;
32505;SDS011;18955;51.224;8.482;2022-09-30T19:25:18;5.78;;;2.10;;
32505;SDS011;18955;51.224;8.482;2022-09-30T19:27:44;3.30;;;1.98;;
32505;SDS011;18955;51.224;8.482;2022-09-30T19:30:12;3.40;;;1.67;;
32505;SDS011;18955;51.224;8.482;2022-09-30T19:32:39;5.78;;;1.98;;